Tiempo atmosférico en la estación meteorológica de Barcelona, Museo Marítimo, Barcelona (37 m.)



Fecha
DESCASC
Temp. máxima en grados centígrados (hora)
DESCASC
Temp. mínima en grados centígrados (hora)
DESCASC
Temp. media en grados centígrados
DESCASC
Racha de viento máxima en m/sg (hora)
DESCASC
Velocidad máxima media en intervalos de 10 minutos(hora)
DESCASC
Precipitaciones diarias en mm
DESCASC
Precipitaciones de 00:00 a 06:00 en mm
DESCASC
Precipitaciones de 06:00 a 12:00 en mm
DESCASC
Precipitaciones de 12:00 a 18:00 en mm
DESCASC
Precipitaciones de 18:00 a 24:00 en mm
DESCASC
26-03-2020 12.2 (10:50) 7.4 (07:00) 9.8 11.11 (16:20) 5 (16:20) 0.6 0 0.4 0.2 0
25-03-2020 13.6 (13:50) 8.5 (23:20) 11.1 7.22 (02:30) 3.06 (07:40) 2.2 0 0.4 1.8 0
24-03-2020 15.2 (14:10) 10.6 (23:50) 12.9 11.11 (12:00) 5 (13:10) 0.4 0 0.4 0 0
23-03-2020 16.3 (14:40) 12.4 (06:50) 14.3 10 (20:40) 3.89 (17:30) 19.6 3 16.6 0 0
22-03-2020 16.8 (13:30) 12 (07:10) 14.4 8.06 (20:00) 3.33 (17:30) 1.4 0 0.6 0 0.8
21-03-2020 17.1 (14:10) 10.1 (00:00) 13.6 6.67 (14:20) 2.78 (12:40) 0.6 0 0.6 0 0
20-03-2020 16.5 (16:00) 10.3 (00:00) 13.4 6.11 (12:20) 2.78 (13:20) 0.4 0 0.4 0 0
19-03-2020 16 (15:00) 10.1 (00:00) 13.1 5.28 (13:50) 2.22 (14:00) 0.6 0 0.6 0 0
18-03-2020 17.1 (16:00) 11.3 (00:00) 14.2 4.72 (10:20) 2.78 (13:10) 0.8 0 0.8 0 0
17-03-2020 16.8 (14:10) 13.4 (00:00) 15.1 9.17 (02:00) 3.61 (01:50) 0.6 0.4 0.2 0 0
16-03-2020 14.3 (00:00) 13.1 (00:00) 13.7 12.5 (12:10) 5.56 (12:30) 13.2 0 0.6 12.6 0
15-03-2020 16.8 (12:40) 11 (00:00) 13.9 7.5 (16:10) 3.61 (13:10) 0.6 0 0.6 0 0
14-03-2020 17.4 (15:00) 12.9 (00:00) 15.1 4.72 (12:30) 2.22 (12:10) 0.6 0 0.6 0 0
13-03-2020 19.9 (15:30) 12 (05:50) 15.9 7.22 (14:10) 4.17 (14:20) 0.6 0 0.6 0 0
12-03-2020 19.5 (13:10) 11.4 (00:00) 15.4 5.56 (12:00) 3.33 (11:40) 0.6 0 0.6 0 0
11-03-2020 16.9 (14:10) 10.9 (00:00) 13.9 5.28 (03:00) 3.33 (03:00) 0 0 0 0 0
10-03-2020 16.3 (13:40) 10.1 (00:00) 13.2 9.72 (16:30) 6.11 (16:30) 0.6 0 0.6 0 0
09-03-2020 17.6 (15:10) 11.3 (00:00) 14.5 10 (16:40) 3.89 (17:10) 0 0 0 0 0
08-03-2020 17.4 (12:00) 10.9 (00:00) 14.1 8.61 (17:50) 4.72 (17:50) 0 0 0 0 0
07-03-2020 19 (15:50) 8.5 (00:00) 13.8 8.33 (16:30) 3.89 (02:10) 0 0 0 0 0
06-03-2020 18.1 (14:30) 9.5 (00:00) 13.8 11.94 (14:10) 5 (11:50) 0 0 0 0 0
05-03-2020 21.3 (15:50) 11.8 (00:00) 16.5 12.5 (18:20) 6.67 (16:00) 0 0 0 0 0
04-03-2020 16.9 (11:30) 11.8 (00:00) 14.3 7.78 (04:00) 4.44 (04:00) 0 0 0 0 0
03-03-2020 15.9 (18:20) 9.3 (00:00) 12.6 10.83 (14:50) 5.56 (15:20) 0 0 0 0 0
02-03-2020 19.6 (15:20) 10.5 (00:00) 15.1 17.78 (11:30) 8.33 (11:40) 1.4 0.6 0.8 0 0
01-03-2020 20.9 (15:00) 13.3 (00:00) 17.1 11.67 (17:30) 6.67 (15:30) 0 0 0 0 0
29-02-2020 18 (13:10) 13.2 (00:00) 15.6 9.17 (15:00) 4.72 (15:00) 0 0 0 0 0
28-02-2020 16.9 (00:00) 12.7 (00:00) 14.8 6.94 (00:10) 3.61 (00:10) 0 0 0 0 0

Gráficas

Temp. máximas Temp. mínimas Temp. medias Precipitaciones Rachas de viento máximas Velocidades máximas media en intervalos de 10 minutos

Datos horarios

Fecha y hora oficial Temperatura (ºC) Velocidad del viento (km/h) Dirección del viento Racha (km/h) Dirección de racha Precipitación (mm) Presión (hPa) Tendencia (hPa) Humedad (%)
2020-03-28 23:00:00 13.6 5 Oeste 11 Oeste 0 -- -- 64
2020-03-28 22:00:00 14.4 4 Oeste 10 Noroeste 0 -- -- 60
2020-03-28 21:00:00 14.3 5 Oeste 12 Noroeste 0 -- -- 62
2020-03-28 20:00:00 14.3 6 Oeste 13 Oeste 0 -- -- 62
2020-03-28 19:00:00 14.7 7 Oeste 18 Oeste 0 -- -- 58
2020-03-28 18:00:00 15.7 8 Oeste 21 Oeste 0 -- -- 55
2020-03-28 17:00:00 15.7 9 Oeste 18 Sudoeste 0 -- -- 54
2020-03-28 16:00:00 17.5 5 Sudoeste 16 Sudoeste 0 -- -- 53
2020-03-28 15:00:00 16.9 5 Sudoeste 13 Sudoeste 0 -- -- 54
2020-03-28 14:00:00 16.6 6 Este 13 Sudeste 0 -- -- 55
2020-03-28 13:00:00 17 4 Sudeste 13 Sudeste 0 -- -- 50
2020-03-28 12:00:00 16.3 6 Sudeste 14 Este 0 -- -- 49
2020-03-28 11:00:00 15.9 6 Sudeste 13 Este 0 -- -- 50
2020-03-28 10:00:00 14.8 5 Este 13 Nordeste 0 -- -- 50
2020-03-28 09:00:00 14.6 4 Este 11 Nordeste 0 -- -- 52
2020-03-28 08:00:00 12.4 4 Nordeste 9 Nordeste 0 -- -- 58
2020-03-28 07:00:00 11.1 0 Calma 10 Este 0.6 -- -- 76
2020-03-28 06:00:00 12.4 4 Nordeste 9 Nordeste 0 -- -- 56
2020-03-28 05:00:00 12.1 2 Noroeste 4 Noroeste 0 -- -- 58
2020-03-28 04:00:00 12 0 Calma 9 Noroeste 0 -- -- 59
2020-03-28 03:00:00 11.7 4 Noroeste 6 Noroeste 0 -- -- 60
2020-03-28 02:00:00 12 2 Nordeste 7 Nordeste 0 -- -- 58
2020-03-28 01:00:00 11.8 2 Este 6 Oeste 0 -- -- 58
2020-03-28 00:00:00 11.6 3 Oeste 12 Oeste 0 -- -- 59
2020-03-27 23:00:00 11.6 5 Noroeste 13 Oeste 0 -- -- 59
2020-03-27 22:00:00 11.7 5 Oeste 11 Oeste 0 -- -- 61
2020-03-27 21:00:00 11.8 4 Oeste 8 Oeste 0 -- -- 57
2020-03-27 20:00:00 11.5 5 Oeste 8 Este 0 -- -- 63
2020-03-27 19:00:00 12.1 6 Este 15 Este 0 -- -- 63
2020-03-27 18:00:00 13.3 4 Este 13 Sudoeste 0 -- -- 44
2020-03-27 17:00:00 13.7 3 Oeste 17 Sudoeste 0 -- -- 42
2020-03-27 16:00:00 14 7 Sudoeste 18 Sudoeste 0 -- -- 40
2020-03-27 15:00:00 14.6 4 Noroeste 18 Sudoeste 0 -- -- 44
2020-03-27 14:00:00 15.9 4 Oeste 12 Oeste 0 -- -- 38
2020-03-27 13:00:00 15.4 4 Sudeste 10 Oeste 0 -- -- 34
2020-03-27 12:00:00 14.3 3 Sudeste 17 Oeste 0 -- -- 37
2020-03-27 11:00:00 14.4 4 Sudoeste 14 Oeste 0 -- -- 39
2020-03-27 10:00:00 12.4 6 Oeste 10 Noroeste 0 -- -- 45
2020-03-27 09:00:00 10.4 7 Oeste 12 Oeste 0 -- -- 51
2020-03-27 08:00:00 8.3 8 Noroeste 17 Noroeste 0 -- -- 58
2020-03-27 07:00:00 6.8 6 Noroeste 10 Oeste 0.4 -- -- 67
2020-03-27 06:00:00 7.6 3 Nordeste 8 Oeste 0 -- -- 60
2020-03-27 05:00:00 7.4 4 Noroeste 7 Oeste 0 -- -- 63
2020-03-27 04:00:00 7.6 4 Noroeste 7 Oeste 0 -- -- 65
2020-03-27 03:00:00 7.3 2 Oeste 6 Noroeste 0 -- -- 69
2020-03-27 02:00:00 7.8 2 Oeste 7 Nordeste 0 -- -- 65
2020-03-27 01:00:00 8.3 2 Oeste 10 Nordeste 0 -- -- 64
2020-03-27 00:00:00 8.6 4 Nordeste 14 Nordeste 0 -- -- 65
2020-03-26 23:00:00 8.9 4 Este 13 Nordeste 0 -- -- 62
2020-03-26 22:00:00 9.3 5 Este 16 Nordeste 0 -- -- 59
2020-03-26 21:00:00 9.6 8 Este 19 Este 0 -- -- 59
2020-03-26 20:00:00 9.8 7 Este 22 Este 0 -- -- 60
2020-03-26 19:00:00 9.8 8 Este 27 Este 0 -- -- 65
2020-03-26 18:00:00 9.7 10 Este 33 Sudeste 0.2 -- -- 75
2020-03-26 17:00:00 10.7 12 Este 40 Este 0 -- -- 63
2020-03-26 16:00:00 11.7 12 Este 39 Este 0 -- -- 61
2020-03-26 15:00:00 11.9 13 Este 33 Nordeste 0 -- -- 65
2020-03-26 14:00:00 11.7 12 Este 30 Este 0 -- -- 63
2020-03-26 13:00:00 11.6 13 Este 35 Sudeste 0 -- -- 64
2020-03-26 12:00:00 11.8 13 Este 34 Este 0 -- -- 70
2020-03-26 11:00:00 12.1 13 Este 30 Sudeste 0 -- -- 64
2020-03-26 10:00:00 11.5 5 Este 16 Nordeste 0 -- -- 57
2020-03-26 09:00:00 10.4 9 Este 15 Nordeste 0 -- -- 61
2020-03-26 08:00:00 8.6 5 Nordeste 13 Nordeste 0 -- -- 67
2020-03-26 07:00:00 7.4 4 Nordeste 11 Nordeste 0.4 -- -- 75
2020-03-26 06:00:00 7.6 4 Este 8 Nordeste 0 -- -- 72
2020-03-26 05:00:00 7.6 3 Oeste 6 Oeste 0 -- -- 73
2020-03-26 04:00:00 8.4 4 Oeste 13 Noroeste 0 -- -- 69
2020-03-26 03:00:00 8.5 5 Oeste 9 Oeste 0 -- -- 70
2020-03-26 02:00:00 8.3 2 Sudoeste 8 Oeste 0 -- -- 69
2020-03-26 01:00:00 8.2 4 Oeste 9 Oeste 0 -- -- 67
2020-03-26 00:00:00 8.6 4 Oeste 10 Oeste 0 -- -- 66
2020-03-25 23:00:00 8.6 5 Oeste 8 Oeste 0 -- -- 68
2020-03-25 22:00:00 9.1 3 Oeste 6 Oeste 0 -- -- 69
2020-03-25 21:00:00 9.7 4 Oeste 9 Oeste 0 -- -- 66
2020-03-25 20:00:00 10.2 5 Oeste 9 Oeste 0 -- -- 66
2020-03-25 19:00:00 10.2 5 Oeste 12 Oeste 0 -- -- 68
2020-03-25 18:00:00 9.7 3 Oeste 8 Sudoeste 0 -- -- 71
2020-03-25 17:00:00 9.2 3 Este 17 Noroeste 1.6 -- -- 76
2020-03-25 16:00:00 11.2 3 Este 17 Sudeste 0.2 -- -- 63
2020-03-25 15:00:00 12.6 8 Sudeste 22 Sudeste 0 -- -- 58
2020-03-25 14:00:00 13.5 8 Sudeste 18 Sudeste 0 -- -- 44
2020-03-25 13:00:00 13.3 6 Sudeste 22 Sudeste 0 -- -- 50
2020-03-25 12:00:00 13 6 Sudeste 18 Este 0 -- -- 46
2020-03-25 11:00:00 12.6 6 Este 14 Este 0 -- -- 47
2020-03-25 10:00:00 10.8 7 Nordeste 19 Nordeste 0 -- -- 48
2020-03-25 09:00:00 10.1 4 Este 12 Nordeste 0 -- -- 51
2020-03-25 08:00:00 9.3 6 Oeste 26 Nordeste 0 -- -- 53
2020-03-25 07:00:00 9.2 5 Este 19 Este 0.4 -- -- 56
2020-03-25 06:00:00 10.2 8 Este 18 Nordeste 0 -- -- 49
2020-03-25 05:00:00 10.1 8 Este 20 Este 0 -- -- 52
2020-03-25 04:00:00 10.2 8 Este 22 Este 0 -- -- 54
2020-03-25 03:00:00 10.3 8 Este 26 Este 0 -- -- 56
2020-03-25 02:00:00 10.5 9 Este 18 Este 0 -- -- 56
2020-03-25 01:00:00 10.4 8 Este 18 Este 0 -- -- 58
2020-03-25 00:00:00 10.6 7 Este 19 Este 0 -- -- 60
2020-03-24 23:00:00 10.8 7 Este 25 Este 0 -- -- 60
2020-03-24 22:00:00 11.1 9 Este 31 Este 0 -- -- 61
2020-03-24 21:00:00 11.6 10 Este 33 Sudeste 0 -- -- 63
2020-03-24 20:00:00 11.9 13 Este 36 Sudeste 0 -- -- 64
2020-03-24 19:00:00 12.3 11 Este 33 Este 0 -- -- 65
2020-03-24 18:00:00 12.4 12 Este 36 Sudeste 0 -- -- 65
2020-03-24 17:00:00 12.6 13 Sudeste 36 Sudeste 0 -- -- 69
2020-03-24 16:00:00 13.6 13 Sudeste 33 Sudeste 0 -- -- 70
2020-03-24 15:00:00 14.5 13 Este 35 Sudeste 0 -- -- 63
2020-03-24 14:00:00 15.1 13 Sudeste 34 Sudeste 0 -- -- 61
2020-03-24 13:00:00 14.8 15 Sudeste 38 Sudeste 0 -- -- 61
2020-03-24 12:00:00 14.6 15 Sudeste 40 Este 0 -- -- 60
2020-03-24 11:00:00 14.2 11 Este 33 Este 0 -- -- 63
2020-03-24 10:00:00 13.9 11 Este 31 Sudeste 0 -- -- 64
2020-03-24 09:00:00 13 10 Este 25 Sudeste 0 -- -- 70
2020-03-24 08:00:00 11.8 9 Este 26 Este 0 -- -- 76
2020-03-24 07:00:00 11.2 12 Este 26 Este 0.4 -- -- 77
2020-03-24 06:00:00 11.9 8 Este 23 Nordeste 0 -- -- 77
2020-03-24 05:00:00 12.1 9 Este 28 Nordeste 0 -- -- 78
2020-03-24 04:00:00 12.6 10 Este 31 Este 0 -- -- 79
2020-03-24 03:00:00 12.7 11 Este 28 Este 0 -- -- 75
2020-03-24 02:00:00 12.6 9 Este 25 Este 0 -- -- 76
2020-03-24 01:00:00 12.9 10 Este 26 Este 0 -- -- 76
2020-03-24 00:00:00 13 10 Este 25 Sudeste 0 -- -- 78
2020-03-23 23:00:00 13.3 9 Este 35 Este 0 -- -- 80
2020-03-23 22:00:00 13.6 12 Este 31 Este 0 -- -- 81
2020-03-23 21:00:00 13.5 13 Este 36 Este 0 -- -- 82
2020-03-23 20:00:00 14 10 Este 31 Este 0 -- -- 78
2020-03-23 19:00:00 14.5 10 Este 29 Este 0 -- -- 79
2020-03-23 18:00:00 15 12 Sudeste 32 Sudeste 0 -- -- 80
2020-03-23 17:00:00 15.7 12 Este 32 Sudeste 0 -- -- 76
2020-03-23 16:00:00 16 12 Este 34 Sudeste 0 -- -- 75
2020-03-23 15:00:00 16.1 12 Sudeste 28 Sudeste 0 -- -- 80
2020-03-23 14:00:00 16 10 Este 24 Este 0 -- -- 78
2020-03-23 13:00:00 15.2 9 Este 25 Este 0 -- -- 81
2020-03-23 12:00:00 13.7 9 Este 22 Este 0 -- -- 87
2020-03-23 11:00:00 13.1 9 Este 21 Este 1.8 -- -- 93
2020-03-23 10:00:00 12.9 5 Oeste 14 Sudeste 6.2 -- -- 95
2020-03-23 09:00:00 12.9 6 Este 19 Este 2.6 -- -- 95
2020-03-23 08:00:00 12.7 6 Este 21 Este 2.6 -- -- 95
2020-03-23 07:00:00 12.4 7 Este 22 Nordeste 3.4 -- -- 94
2020-03-23 06:00:00 12.6 9 Este 21 Este 2.6 -- -- 91
2020-03-23 05:00:00 13 5 Este 13 Nordeste 0 -- -- 88
2020-03-23 04:00:00 13.2 6 Este 17 Este 0 -- -- 88
2020-03-23 03:00:00 13.1 7 Este 19 Este 0.4 -- -- 89
2020-03-23 02:00:00 13.6 7 Este 18 Sudeste 0 -- -- 85
2020-03-23 01:00:00 13.6 8 Este 17 Este 0 -- -- 85
2020-03-23 00:00:00 13.7 6 Este 18 Este 0 -- -- 86
2020-03-22 23:00:00 13.9 6 Este 21 Este 0.2 -- -- 90
2020-03-22 22:00:00 14 6 Este 25 Este 0.4 -- -- 90
2020-03-22 21:00:00 14.1 9 Este 24 Este 0 -- -- 89
2020-03-22 20:00:00 14.1 12 Este 29 Este 0.2 -- -- 89
2020-03-22 19:00:00 14.5 8 Este 29 Este 0 -- -- 86
2020-03-22 18:00:00 14.9 10 Sudeste 28 Sudeste 0 -- -- 83
2020-03-22 17:00:00 15.3 10 Este 26 Sudeste 0 -- -- 82
2020-03-22 16:00:00 15.5 10 Este 26 Sudeste 0 -- -- 82
2020-03-22 15:00:00 16.5 11 Sudeste 28 Este 0 -- -- 78
2020-03-22 14:00:00 16.6 9 Este 27 Sudeste 0 -- -- 78
2020-03-22 13:00:00 16.6 9 Este 22 Sudeste 0 -- -- 76
2020-03-22 12:00:00 16.5 10 Este 23 Sudeste 0 -- -- 78
2020-03-22 11:00:00 15.5 6 Este 19 Sudeste 0 -- -- 80
2020-03-22 10:00:00 15 7 Este 16 Este 0 -- -- 81
2020-03-22 09:00:00 13.7 6 Este 14 Nordeste 0 -- -- 83
2020-03-22 08:00:00 12.5 3 Este 9 Nordeste 0 -- -- 88
2020-03-22 07:00:00 12.1 3 Nordeste 9 Nordeste 0.6 -- -- 89
2020-03-22 06:00:00 12.3 3 Este 9 Nordeste 0 -- -- 85
2020-03-22 05:00:00 12.6 4 Este 10 Nordeste 0 -- -- 84
2020-03-22 04:00:00 12.8 5 Nordeste 9 Nordeste 0 -- -- 84
2020-03-22 03:00:00 13 4 Este 10 Nordeste 0 -- -- 84
2020-03-22 02:00:00 13.4 4 Este 9 Nordeste 0 -- -- 82
2020-03-22 01:00:00 13.6 4 Nordeste 8 Nordeste 0 -- -- 83
2020-03-22 00:00:00 13.8 4 Este 10 Este 0 -- -- 84
2020-03-21 23:00:00 13.9 5 Este 11 Este 0 -- -- 86
2020-03-21 22:00:00 13.9 4 Este 15 Este 0 -- -- 86
2020-03-21 21:00:00 14.1 5 Este 14 Este 0 -- -- 87
2020-03-21 20:00:00 14.1 5 Sudeste 13 Nordeste 0 -- -- 85
2020-03-21 19:00:00 14.4 6 Este 15 Sudeste 0 -- -- 82
2020-03-21 18:00:00 14.9 5 Sudeste 17 Este 0 -- -- 80
2020-03-21 17:00:00 16.2 7 Este 16 Sudeste 0 -- -- 75
2020-03-21 16:00:00 16.9 6 Este 19 Sudeste 0 -- -- 72
2020-03-21 15:00:00 17.1 8 Sudeste 24 Sudeste 0 -- -- 66
2020-03-21 14:00:00 16.9 9 Sudeste 21 Este 0 -- -- 66
2020-03-21 13:00:00 16.6 9 Sudeste 22 Sudeste 0 -- -- 67
2020-03-21 12:00:00 16.2 8 Sudeste 21 Sudeste 0 -- -- 67
2020-03-21 11:00:00 15.5 5 Este 14 Nordeste 0 -- -- 60
2020-03-21 10:00:00 13.6 8 Este 17 Nordeste 0 -- -- 60
2020-03-21 09:00:00 12.2 8 Nordeste 17 Nordeste 0 -- -- 64
2020-03-21 08:00:00 11.1 6 Nordeste 13 Nordeste 0 -- -- 70
2020-03-21 07:00:00 10.1 3 Nordeste 11 Norte 0.6 -- -- 75
2020-03-21 06:00:00 10.9 5 Nordeste 16 Nordeste 0 -- -- 66
2020-03-21 05:00:00 11 6 Nordeste 14 Nordeste 0 -- -- 68
2020-03-21 04:00:00 11.2 5 Este 13 Nordeste 0 -- -- 66
2020-03-21 03:00:00 11.4 4 Este 11 Nordeste 0 -- -- 65
2020-03-21 02:00:00 11.6 2 Este 8 Nordeste 0 -- -- 65
2020-03-21 01:00:00 12 4 Este 10 Nordeste 0 -- -- 71
2020-03-21 00:00:00 12.3 4 Este 9 Este 0 -- -- 68
2020-03-20 23:00:00 12.5 4 Este 14 Este 0 -- -- 65
2020-03-20 22:00:00 12.9 3 Este 11 Este 0 -- -- 79
2020-03-20 21:00:00 13.3 4 Este 13 Este 0 -- -- 82
2020-03-20 20:00:00 13.6 4 Este 14 Este 0 -- -- 80
2020-03-20 19:00:00 14 4 Sudeste 16 Sudeste 0 -- -- 78
2020-03-20 18:00:00 15.3 5 Sudeste 20 Sudeste 0 -- -- 72
2020-03-20 17:00:00 16 5 Este 17 Sudeste 0 -- -- 74
2020-03-20 16:00:00 16.5 7 Sudeste 21 Sur 0 -- -- 72
2020-03-20 15:00:00 16.3 8 Sudeste 19 Sudeste 0 -- -- 74
2020-03-20 14:00:00 15.9 6 Sudeste 19 Sudeste 0 -- -- 74
2020-03-20 13:00:00 15.9 8 Sudeste 22 Sudeste 0 -- -- 70
2020-03-20 12:00:00 15.6 8 Este 19 Este 0 -- -- 72
2020-03-20 11:00:00 15 8 Este 17 Este 0 -- -- 72
2020-03-20 10:00:00 14.5 5 Este 15 Nordeste 0 -- -- 69
2020-03-20 09:00:00 12.5 5 Este 13 Nordeste 0 -- -- 69
2020-03-20 08:00:00 11.2 2 Sudeste 11 Nordeste 0 -- -- 79
2020-03-20 07:00:00 10.5 5 Este 13 Este 0.4 -- -- 81
2020-03-20 06:00:00 11 5 Este 11 Este 0 -- -- 78
2020-03-20 05:00:00 11 0 Calma 12 Nordeste 0 -- -- 79
2020-03-20 04:00:00 11.5 6 Nordeste 13 Nordeste 0 -- -- 77
2020-03-20 03:00:00 11.6 4 Nordeste 11 Nordeste 0 -- -- 81
2020-03-20 02:00:00 12 4 Este 9 Este 0 -- -- 83
2020-03-20 01:00:00 12.2 3 Este 6 Este 0 -- -- 83
2020-03-20 00:00:00 12.2 3 Este 8 Nordeste 0 -- -- 83
2020-03-19 23:00:00 12.4 3 Este 12 Este 0 -- -- 82
2020-03-19 22:00:00 12.9 4 Este 11 Nordeste 0 -- -- 78
2020-03-19 21:00:00 13.1 4 Sudeste 12 Sudeste 0 -- -- 78
2020-03-19 20:00:00 13.2 5 Este 12 Este 0 -- -- 78
2020-03-19 19:00:00 13.4 6 Sudeste 12 Sudeste 0 -- -- 76
2020-03-19 18:00:00 14.2 6 Sudeste 13 Sudeste 0 -- -- 75
2020-03-19 17:00:00 14.7 6 Sudeste 16 Sudeste 0 -- -- 73
2020-03-19 16:00:00 15.3 6 Sudeste 15 Sudeste 0 -- -- 71
2020-03-19 15:00:00 16 8 Sudeste 15 Sudeste 0 -- -- 68
2020-03-19 14:00:00 15.5 8 Este 19 Este 0 -- -- 72
2020-03-19 13:00:00 15.6 8 Sudeste 16 Sudeste 0 -- -- 73
2020-03-19 12:00:00 15.5 5 Sudeste 14 Sur 0 -- -- 74
2020-03-19 11:00:00 15 6 Sudeste 13 Sudeste 0 -- -- 77
2020-03-19 10:00:00 14.4 5 Sudeste 11 Sur 0 -- -- 78
2020-03-19 09:00:00 13 4 Nordeste 10 Nordeste 0 -- -- 84
2020-03-19 08:00:00 11.3 5 Este 9 Nordeste 0 -- -- 86
2020-03-19 07:00:00 10.1 3 Nordeste 6 Nordeste 0.6 -- -- 89
2020-03-19 06:00:00 10.5 3 Nordeste 6 Nordeste 0 -- -- 87
2020-03-19 05:00:00 10.4 2 Este 3 Sudeste 0 -- -- 89
2020-03-19 04:00:00 10.8 2 Sudeste 3 Sudeste 0 -- -- 90
2020-03-19 03:00:00 11.2 2 Este 3 Este 0 -- -- 88
2020-03-19 02:00:00 11.9 2 Oeste 4 Oeste 0 -- -- 91
2020-03-19 01:00:00 12.2 4 Oeste 10 Oeste 0 -- -- 91
2020-03-19 00:00:00 12.3 2 Oeste 6 Noroeste 0 -- -- 89
2020-03-18 23:00:00 12.8 3 Oeste 7 Oeste 0 -- -- 88
2020-03-18 22:00:00 13 2 Oeste 5 Oeste 0 -- -- 87
2020-03-18 21:00:00 13.2 0 Calma 6 Este 0 -- -- 88
2020-03-18 20:00:00 13.5 4 Sudeste 8 Sur 0 -- -- 86
2020-03-18 19:00:00 14.1 3 Este 8 Sudeste 0 -- -- 82
2020-03-18 18:00:00 15 5 Sudeste 10 Sudeste 0 -- -- 80
2020-03-18 17:00:00 16.4 5 Sudeste 13 Sudeste 0 -- -- 73
2020-03-18 16:00:00 17.1 6 Sudeste 12 Sudeste 0 -- -- 68
2020-03-18 15:00:00 16.3 6 Sudeste 13 Sudeste 0 -- -- 72
2020-03-18 14:00:00 15.9 7 Sudeste 15 Sudeste 0 -- -- 72
2020-03-18 13:00:00 15.7 7 Sudeste 14 Sudeste 0 -- -- 72
2020-03-18 12:00:00 14.7 7 Sudeste 14 Sudeste 0 -- -- 74
2020-03-18 11:00:00 14.5 6 Este 17 Este 0 -- -- 70
2020-03-18 10:00:00 13.8 7 Este 14 Este 0 -- -- 75
2020-03-18 09:00:00 12.6 2 Este 5 Este 0 -- -- 83
2020-03-18 08:00:00 11.7 2 Oeste 5 Oeste 0 -- -- 83
2020-03-18 07:00:00 11.6 0 Calma 5 Nordeste 0.8 -- -- 88
2020-03-18 06:00:00 12.2 3 Nordeste 6 Nordeste 0 -- -- 80
2020-03-18 05:00:00 12.2 0 Calma 8 Nordeste 0 -- -- 82
2020-03-18 04:00:00 12.4 3 Sudeste 5 Sudeste 0 -- -- 84
2020-03-18 03:00:00 12.8 3 Nordeste 6 Este 0 -- -- 86
2020-03-18 02:00:00 12.8 2 Este 6 Sudeste 0 -- -- 86
2020-03-18 01:00:00 13.1 2 Este 8 Este 0 -- -- 90
2020-03-18 00:00:00 13.4 4 Este 10 Este 0 -- -- 89
2020-03-17 23:00:00 13.8 4 Este 12 Este 0 -- -- 88
2020-03-17 22:00:00 14.1 4 Este 12 Este 0 -- -- 87
2020-03-17 21:00:00 14.3 4 Este 12 Sudeste 0 -- -- 85
2020-03-17 20:00:00 14.5 6 Este 14 Nordeste 0 -- -- 81
2020-03-17 19:00:00 14.8 4 Este 18 Este 0 -- -- 80
2020-03-17 18:00:00 15.3 7 Este 22 Este 0 -- -- 77
2020-03-17 17:00:00 15.7 9 Este 26 Este 0 -- -- 72
2020-03-17 16:00:00 15.8 11 Este 29 Nordeste 0 -- -- 74
2020-03-17 15:00:00 16 13 Sudeste 28 Sudeste 0 -- -- 75
2020-03-17 14:00:00 16.7 9 Este 22 Este 0 -- -- 75
2020-03-17 13:00:00 16.3 8 Este 32 Este 0 -- -- 76
2020-03-17 12:00:00 15.1 10 Este 27 Sudeste 0 -- -- 80
2020-03-17 11:00:00 15.2 9 Sudeste 27 Este 0 -- -- 80
2020-03-17 10:00:00 15.3 11 Este 25 Sudeste 0 -- -- 74
2020-03-17 09:00:00 15.1 9 Este 30 Este 0 -- -- 76
2020-03-17 08:00:00 14.8 8 Este 27 Este 0 -- -- 79
2020-03-17 07:00:00 14.2 8 Este 28 Este 0.2 -- -- 83
2020-03-17 06:00:00 14.6 10 Este 30 Este 0.2 -- -- 79
2020-03-17 05:00:00 14.3 8 Este 26 Este 0 -- -- 82
2020-03-17 04:00:00 14.2 11 Este 32 Este 0 -- -- 79
2020-03-17 03:00:00 14 10 Este 28 Nordeste 0.2 -- -- 80
2020-03-17 02:00:00 14.5 13 Este 33 Este 0 -- -- 76
2020-03-17 01:00:00 14.3 9 Este 33 Sudeste 0 -- -- 77
2020-03-17 00:00:00 14.3 12 Este 40 Este 0 -- -- 79
2020-03-16 23:00:00 14 12 Este 41 Este 0 -- -- 85
2020-03-16 22:00:00 14 15 Este 39 Sudeste 0 -- -- 86
2020-03-16 21:00:00 13.9 15 Este 39 Este 0 -- -- 84
2020-03-16 20:00:00 13.6 14 Este 37 Nordeste 0 -- -- 89
2020-03-16 19:00:00 13.6 12 Este 40 Este 0 -- -- 92
2020-03-16 18:00:00 13.6 14 Este 39 Este 0.2 -- -- 93
2020-03-16 17:00:00 13.4 12 Este 35 Sudeste 2.2 -- -- 94
2020-03-16 16:00:00 13.3 14 Este 33 Este 1.6 -- -- 95
2020-03-16 15:00:00 13.4 14 Este 36 Sudeste 3 -- -- 95
2020-03-16 14:00:00 13.6 13 Este 39 Este 1.6 -- -- 95
2020-03-16 13:00:00 13.7 17 Sudeste 45 Sudeste 4 -- -- 94
2020-03-16 12:00:00 14 15 Este 34 Sudeste 0.2 -- -- 91
2020-03-16 11:00:00 14.3 14 Este 34 Sur 0 -- -- 87
2020-03-16 10:00:00 14.2 14 Este 30 Este 0 -- -- 83
2020-03-16 09:00:00 13.9 15 Este 37 Este 0 -- -- 84
2020-03-16 08:00:00 13.5 11 Este 33 Este 0 -- -- 85
2020-03-16 07:00:00 13.2 9 Este 26 Este 0.4 -- -- 85
2020-03-16 06:00:00 13.7 9 Este 25 Sudeste 0 -- -- 83
2020-03-16 05:00:00 13.8 6 Este 16 Sudeste 0 -- -- 79
2020-03-16 04:00:00 14 8 Sudeste 18 Este 0 -- -- 81
2020-03-16 03:00:00 14.1 8 Este 17 Sudeste 0 -- -- 84
2020-03-16 02:00:00 14.3 6 Sudeste 14 Sudeste 0 -- -- 84
2020-03-16 01:00:00 14.2 6 Sudeste 16 Sudeste 0 -- -- 83
2020-03-16 00:00:00 14.3 5 Sudeste 13 Sur 0 -- -- 84
2020-03-15 23:00:00 14.2 6 Sudeste 14 Sudeste 0 -- -- 85
2020-03-15 22:00:00 14.2 6 Sudeste 15 Sudeste 0 -- -- 86
2020-03-15 21:00:00 14.2 5 Sudeste 14 Sudeste 0 -- -- 85
2020-03-15 20:00:00 14.2 5 Sudeste 12 Sudeste 0 -- -- 85
2020-03-15 19:00:00 14.3 3 Oeste 12 Sudoeste 0 -- -- 82
2020-03-15 18:00:00 14.9 5 Oeste 25 Sudoeste 0 -- -- 80
2020-03-15 17:00:00 15.2 11 Sudoeste 27 Sudoeste 0 -- -- 78
2020-03-15 16:00:00 16 13 Sudoeste 24 Sudoeste 0 -- -- 75
2020-03-15 15:00:00 16.5 13 Oeste 23 Sur 0 -- -- 70
2020-03-15 14:00:00 16.6 12 Sudoeste 27 Sudoeste 0 -- -- 73
2020-03-15 13:00:00 16.8 12 Sudoeste 24 Oeste 0 -- -- 70
2020-03-15 12:00:00 16.5 4 Este 20 Oeste 0 -- -- 73
2020-03-15 11:00:00 15.4 8 Oeste 14 Noroeste 0 -- -- 72
2020-03-15 10:00:00 14 4 Sudeste 9 Oeste 0 -- -- 81
2020-03-15 09:00:00 12.8 3 Oeste 6 Oeste 0 -- -- 85
2020-03-15 08:00:00 11.8 0 Calma 3 Norte 0 -- -- 95
2020-03-15 07:00:00 11.3 0 Calma 4 Sudoeste 0.6 -- -- 93
2020-03-15 06:00:00 11.9 0 Calma 6 Nordeste 0 -- -- 86
2020-03-15 05:00:00 12.5 3 Este 5 Este 0 -- -- 85
2020-03-15 04:00:00 13.2 0 Calma 6 Oeste 0 -- -- 87
2020-03-15 03:00:00 12.7 0 Calma 3 Este 0 -- -- 90
2020-03-15 02:00:00 12.7 0 Calma 5 Este 0 -- -- 89
2020-03-15 01:00:00 12.9 0 Calma 5 Nordeste 0 -- -- 87
2020-03-15 00:00:00 13 2 Sudeste 4 Sudeste 0 -- -- 79
2020-03-14 23:00:00 13.4 0 Calma 6 Oeste 0 -- -- 77
2020-03-14 22:00:00 14.2 4 Oeste 9 Oeste 0 -- -- 73
2020-03-14 21:00:00 14.5 3 Oeste 9 Oeste 0 -- -- 73
2020-03-14 20:00:00 14.7 5 Oeste 12 Oeste 0 -- -- 71
2020-03-14 19:00:00 15.2 8 Oeste 12 Oeste 0 -- -- 66
2020-03-14 18:00:00 15.9 3 Norte 12 Oeste 0 -- -- 73
2020-03-14 17:00:00 16.2 4 Sudeste 12 Sudeste 0 -- -- 71
2020-03-14 16:00:00 16.6 6 Sudeste 15 Sudeste 0 -- -- 76
2020-03-14 15:00:00 17.4 6 Sudeste 16 Sudeste 0 -- -- 74
2020-03-14 14:00:00 16.5 5 Sudeste 16 Este 0 -- -- 76
2020-03-14 13:00:00 16.6 6 Sudeste 17 Sudeste 0 -- -- 75
2020-03-14 12:00:00 16.8 8 Este 16 Sudeste 0 -- -- 76
2020-03-14 11:00:00 16.1 7 Sudeste 14 Este 0 -- -- 82
2020-03-14 10:00:00 15.1 5 Este 15 Este 0 -- -- 81
2020-03-14 09:00:00 14 2 Este 8 Sudeste 0 -- -- 85
2020-03-14 08:00:00 13.5 3 Sudeste 8 Sur 0 -- -- 84
2020-03-14 07:00:00 13.5 2 Sudeste 5 Sudeste 0.6 -- -- 90
2020-03-14 06:00:00 14.1 2 Sudoeste 5 Noroeste 0 -- -- 76
2020-03-14 05:00:00 13.9 4 Oeste 9 Oeste 0 -- -- 81
2020-03-14 04:00:00 13.8 6 Oeste 10 Oeste 0 -- -- 83
2020-03-14 03:00:00 13.3 2 Oeste 4 Sudeste 0 -- -- 89
2020-03-14 02:00:00 13.5 3 Oeste 5 Oeste 0 -- -- 87
2020-03-14 01:00:00 13.6 0 Calma 6 Sudoeste 0 -- -- 88
2020-03-14 00:00:00 13.9 0 Calma 8 Este 0 -- -- 88
2020-03-13 23:00:00 14.1 3 Sudeste 6 Sudeste 0 -- -- 87
2020-03-13 22:00:00 14.3 3 Este 8 Sudeste 0 -- -- 85
2020-03-13 21:00:00 14.6 3 Oeste 11 Noroeste 0 -- -- 82
2020-03-13 20:00:00 14.8 4 Oeste 12 Oeste 0 -- -- 81
2020-03-13 19:00:00 15.6 5 Oeste 18 Oeste 0 -- -- 78
2020-03-13 18:00:00 16.5 11 Oeste 19 Oeste 0 -- -- 75
2020-03-13 17:00:00 18 5 Noroeste 24 Oeste 0 -- -- 70
2020-03-13 16:00:00 19.1 13 Oeste 23 Oeste 0 -- -- 65
2020-03-13 15:00:00 19.4 12 Oeste 26 Oeste 0 -- -- 63
2020-03-13 14:00:00 19.1 11 Oeste 24 Oeste 0 -- -- 63
2020-03-13 13:00:00 17.9 12 Oeste 25 Sudoeste 0 -- -- 68
2020-03-13 12:00:00 17.1 9 Oeste 21 Oeste 0 -- -- 68
2020-03-13 11:00:00 16.1 9 Oeste 18 Noroeste 0 -- -- 75
2020-03-13 10:00:00 14.4 7 Oeste 12 Oeste 0 -- -- 78
2020-03-13 09:00:00 13.2 3 Norte 10 Sudoeste 0 -- -- 90
2020-03-13 08:00:00 12.2 4 Oeste 10 Oeste 0.2 -- -- 95
2020-03-13 07:00:00 12.2 3 Oeste 8 Sudoeste 0.4 -- -- 95
2020-03-13 06:00:00 12.1 3 Oeste 6 Sudoeste 0 -- -- 95
2020-03-13 05:00:00 12.3 2 Este 8 Este 0 -- -- 95
2020-03-13 04:00:00 12.4 0 Calma 9 Sudeste 0 -- -- 94
2020-03-13 03:00:00 12.9 5 Este 10 Sudeste 0 -- -- 93
2020-03-13 02:00:00 12.7 2 Sudeste 9 Este 0 -- -- 91
2020-03-13 01:00:00 12.8 3 Este 7 Sudeste 0 -- -- 91
2020-03-13 00:00:00 12.9 3 Este 10 Sudeste 0 -- -- 91
2020-03-12 23:00:00 13.1 4 Este 12 Nordeste 0 -- -- 91
2020-03-12 22:00:00 13.3 5 Este 15 Este 0 -- -- 89
2020-03-12 21:00:00 13.6 4 Este 12 Sudeste 0 -- -- 90
2020-03-12 20:00:00 13.8 5 Este 10 Sudeste 0 -- -- 89
2020-03-12 19:00:00 14.4 3 Norte 9 Sudoeste 0 -- -- 86
2020-03-12 18:00:00 15.9 5 Sudoeste 14 Sudoeste 0 -- -- 79
2020-03-12 17:00:00 17.3 7 Oeste 17 Oeste 0 -- -- 73
2020-03-12 16:00:00 17.5 8 Oeste 17 Sudoeste 0 -- -- 74
2020-03-12 15:00:00 17.8 4 Sur 13 Norte 0 -- -- 74
2020-03-12 14:00:00 18.7 4 Sudoeste 16 Sudeste 0 -- -- 73
2020-03-12 13:00:00 19.4 4 Sudoeste 19 Oeste 0 -- -- 68
2020-03-12 12:00:00 17.7 10 Oeste 20 Oeste 0 -- -- 69
2020-03-12 11:00:00 17.8 8 Oeste 15 Oeste 0 -- -- 57
2020-03-12 10:00:00 16 2 Sudeste 8 Este 0 -- -- 66
2020-03-12 09:00:00 14.4 2 Sudeste 6 Sur 0 -- -- 75
2020-03-12 08:00:00 12.3 6 Noroeste 13 Oeste 0 -- -- 75
2020-03-12 07:00:00 11.4 4 Noroeste 7 Noroeste 0.6 -- -- 87
2020-03-12 06:00:00 12 2 Noroeste 3 Sudeste 0 -- -- 85
2020-03-12 05:00:00 12 0 Calma 3 Sur 0 -- -- 84
2020-03-12 04:00:00 12.8 0 Calma 5 Noroeste 0 -- -- 84
2020-03-12 03:00:00 12.7 3 Noroeste 4 Noroeste 0 -- -- 85
2020-03-12 02:00:00 12.6 0 Calma 3 Sudoeste 0 -- -- 89
2020-03-12 01:00:00 13 2 Nordeste 6 Sudoeste 0 -- -- 88
2020-03-12 00:00:00 13.2 0 Calma 4 Sudoeste 0 -- -- 85
2020-03-11 23:00:00 13.7 3 Oeste 6 Oeste 0 -- -- 85
2020-03-11 22:00:00 14 3 Oeste 8 Oeste 0 -- -- 84
2020-03-11 21:00:00 14.2 4 Sudoeste 8 Noroeste 0 -- -- 83
2020-03-11 20:00:00 14.3 5 Oeste 12 Noroeste 0 -- -- 84
2020-03-11 19:00:00 14.4 3 Sudeste 11 Sudeste 0 -- -- 85
2020-03-11 18:00:00 15 6 Sudeste 12 Sudeste 0 -- -- 82
2020-03-11 17:00:00 15.7 6 Sudeste 13 Sudeste 0 -- -- 78
2020-03-11 16:00:00 16.1 6 Este 15 Sudeste 0 -- -- 76
2020-03-11 15:00:00 16.5 5 Sudeste 14 Sudeste 0 -- -- 76
2020-03-11 14:00:00 16.8 5 Sudeste 14 Sudeste 0 -- -- 73
2020-03-11 13:00:00 16.4 8 Sudeste 14 Sudeste 0 -- -- 74
2020-03-11 12:00:00 16 6 Sudeste 14 Sudeste 0 -- -- 73
2020-03-11 11:00:00 15.8 7 Sudeste 16 Sudeste 0 -- -- 71
2020-03-11 10:00:00 15.3 4 Sudeste 11 Este 0 -- -- 74
2020-03-11 09:00:00 13.4 5 Este 11 Nordeste 0 -- -- 77
2020-03-11 08:00:00 11.8 4 Este 10 Nordeste 0 -- -- 77
2020-03-11 07:00:00 11 3 Este 13 Este 0.6 -- -- 84
2020-03-11 06:00:00 11.6 4 Nordeste 9 Nordeste 0 -- -- 71
2020-03-11 05:00:00 11.3 3 Nordeste 7 Este 0 -- -- 72
2020-03-11 04:00:00 12.2 3 Oeste 17 Noroeste 0 -- -- 72
2020-03-11 03:00:00 12.5 12 Noroeste 19 Oeste 0 -- -- 76
2020-03-11 02:00:00 12.8 7 Oeste 11 Oeste 0 -- -- 74
2020-03-11 01:00:00 13.2 6 Oeste 14 Oeste 0 -- -- 73
2020-03-11 00:00:00 13.2 9 Noroeste 14 Noroeste 0 -- -- 73
2020-03-10 23:00:00 13.4 9 Noroeste 19 Noroeste 0 -- -- 74
2020-03-10 22:00:00 13.5 6 Oeste 10 Noroeste 0 -- -- 73
2020-03-10 21:00:00 13.7 7 Noroeste 19 Oeste 0 -- -- 74
2020-03-10 20:00:00 14 10 Noroeste 17 Oeste 0 -- -- 73
2020-03-10 19:00:00 14.2 12 Oeste 20 Oeste 0 -- -- 70
2020-03-10 18:00:00 14.7 11 Oeste 30 Oeste 0 -- -- 66
2020-03-10 17:00:00 14.8 20 Oeste 35 Oeste 0 -- -- 61
2020-03-10 16:00:00 15.2 19 Oeste 33 Oeste 0 -- -- 61
2020-03-10 15:00:00 16.3 13 Oeste 23 Oeste 0 -- -- 51
2020-03-10 14:00:00 15.8 15 Oeste 28 Oeste 0 -- -- 53
2020-03-10 13:00:00 15.3 12 Sudoeste 31 Sudoeste 0 -- -- 57
2020-03-10 12:00:00 15.5 9 Sudoeste 19 Sudoeste 0 -- -- 51
2020-03-10 11:00:00 14.6 9 Oeste 19 Sudoeste 0 -- -- 50
2020-03-10 10:00:00 13.9 7 Oeste 17 Oeste 0 -- -- 55
2020-03-10 09:00:00 12.6 6 Oeste 10 Noroeste 0 -- -- 59
2020-03-10 08:00:00 10.7 3 Este 12 Noroeste 0 -- -- 63
2020-03-10 07:00:00 10.1 3 Oeste 8 Noroeste 0.6 -- -- 70
2020-03-10 06:00:00 11.2 3 Sudoeste 12 Oeste 0 -- -- 57
2020-03-10 05:00:00 11.6 5 Oeste 14 Oeste 0 -- -- 56
2020-03-10 04:00:00 12.2 5 Oeste 12 Oeste 0 -- -- 65
2020-03-10 03:00:00 12.5 4 Oeste 7 Oeste 0 -- -- 74
2020-03-10 02:00:00 12.8 4 Oeste 10 Oeste 0 -- -- 72
2020-03-10 01:00:00 13 5 Oeste 10 Oeste 0 -- -- 73
2020-03-10 00:00:00 13.5 4 Oeste 10 Sudoeste 0 -- -- 72
2020-03-09 23:00:00 13.7 3 Noroeste 17 Sudoeste 0 -- -- 71
2020-03-09 22:00:00 13.4 3 Nordeste 17 Sudeste 0 -- -- 72
2020-03-09 21:00:00 13.5 8 Sudeste 21 Sudeste 0 -- -- 69
2020-03-09 20:00:00 13.3 7 Sudeste 28 Sudeste 0 -- -- 70
2020-03-09 19:00:00 13.3 10 Sudeste 28 Sudeste 0 -- -- 73
2020-03-09 18:00:00 13.7 9 Este 31 Sudeste 0 -- -- 74
2020-03-09 17:00:00 14.2 13 Este 36 Sudeste 0 -- -- 75
2020-03-09 16:00:00 15.6 12 Este 23 Sudeste 0 -- -- 70
2020-03-09 15:00:00 17.3 7 Sudoeste 26 Oeste 0 -- -- 54
2020-03-09 14:00:00 16.3 9 Sudoeste 23 Sudoeste 0 -- -- 58
2020-03-09 13:00:00 17.1 5 Nordeste 19 Oeste 0 -- -- 57
2020-03-09 12:00:00 17.4 4 Sur 12 Oeste 0 -- -- 54
2020-03-09 11:00:00 15.8 5 Norte 13 Oeste 0 -- -- 56
2020-03-09 10:00:00 15.4 4 Este 17 Noroeste 0 -- -- 59
2020-03-09 09:00:00 14.1 3 Norte 10 Oeste 0 -- -- 61
2020-03-09 08:00:00 12 3 Oeste 8 Sudoeste 0 -- -- 65
2020-03-09 07:00:00 11.6 0 Calma 9 Este 0 -- -- 72
2020-03-09 06:00:00 12.3 0 Calma 12 Este 0 -- -- 70
2020-03-09 05:00:00 12.3 3 Este 9 Nordeste 0 -- -- 71
2020-03-09 04:00:00 12.1 3 Nordeste 7 Nordeste 0 -- -- 73
2020-03-09 03:00:00 12.6 2 Nordeste 9 Nordeste 0 -- -- 74
2020-03-09 02:00:00 12.3 3 Este 6 Este 0 -- -- 74
2020-03-09 01:00:00 12.5 2 Sudeste 5 Oeste 0 -- -- 77
2020-03-09 00:00:00 13.4 3 Oeste 7 Oeste 0 -- -- 76
2020-03-08 23:00:00 13.7 4 Oeste 10 Oeste 0 -- -- 72
2020-03-08 22:00:00 14 5 Oeste 13 Oeste 0 -- -- 71
2020-03-08 21:00:00 15 7 Oeste 13 Oeste 0 -- -- 52
2020-03-08 20:00:00 15.1 9 Oeste 17 Oeste 0 -- -- 54
2020-03-08 19:00:00 14.9 9 Oeste 29 Oeste 0 -- -- 62
2020-03-08 18:00:00 15.1 17 Oeste 31 Oeste 0 -- -- 63
2020-03-08 17:00:00 16.1 11 Oeste 23 Oeste 0 -- -- 60
2020-03-08 16:00:00 15.6 10 Oeste 19 Noroeste 0 -- -- 58
2020-03-08 15:00:00 16.7 11 Sudoeste 22 Sudoeste 0 -- -- 54
2020-03-08 14:00:00 16.5 12 Sudoeste 23 Sur 0 -- -- 53
2020-03-08 13:00:00 16.2 11 Sudoeste 25 Sudoeste 0 -- -- 54
2020-03-08 12:00:00 17.4 5 Sudeste 15 Noroeste 0 -- -- 51
2020-03-08 11:00:00 16.5 6 Oeste 17 Oeste 0 -- -- 47
2020-03-08 10:00:00 14.9 5 Nordeste 13 Nordeste 0 -- -- 53
2020-03-08 09:00:00 13.3 6 Oeste 12 Oeste 0 -- -- 61
2020-03-08 08:00:00 11.4 5 Oeste 9 Oeste 0 -- -- 68
2020-03-08 07:00:00 11 0 Calma 6 Nordeste 0 -- -- 72
2020-03-08 06:00:00 12.1 3 Nordeste 9 Nordeste 0 -- -- 69
2020-03-08 05:00:00 12.2 0 Calma 10 Nordeste 0 -- -- 69
2020-03-08 04:00:00 12.2 3 Este 9 Este 0 -- -- 68
2020-03-08 03:00:00 12.3 4 Este 9 Nordeste 0 -- -- 68
2020-03-08 02:00:00 12.5 3 Este 9 Este 0 -- -- 68
2020-03-08 01:00:00 12.7 4 Este 12 Sur 0 -- -- 66
2020-03-08 00:00:00 12.8 5 Este 14 Sudeste 0 -- -- 70
2020-03-07 23:00:00 12.9 3 Este 14 Sudeste 0 -- -- 73
2020-03-07 22:00:00 13.1 7 Sudeste 19 Este 0 -- -- 73
2020-03-07 21:00:00 13.3 8 Este 22 Sudeste 0 -- -- 72
2020-03-07 20:00:00 13.8 7 Sudeste 21 Sudeste 0 -- -- 74
2020-03-07 19:00:00 14.7 2 Sur 18 Oeste 0 -- -- 57
2020-03-07 18:00:00 16.2 10 Oeste 27 Oeste 0 -- -- 50
2020-03-07 17:00:00 17 14 Oeste 30 Oeste 0 -- -- 45
2020-03-07 16:00:00 18.8 8 Sudoeste 23 Sudoeste 0 -- -- 29
2020-03-07 15:00:00 18.4 8 Oeste 25 Noroeste 0 -- -- 30
2020-03-07 14:00:00 17.6 10 Oeste 22 Noroeste 0 -- -- 31
2020-03-07 13:00:00 17.1 7 Oeste 20 Noroeste 0 -- -- 32
2020-03-07 12:00:00 15.6 10 Oeste 23 Oeste 0 -- -- 36
2020-03-07 11:00:00 13.9 13 Oeste 26 Noroeste 0 -- -- 37
2020-03-07 10:00:00 12.4 12 Oeste 24 Oeste 0 -- -- 41
2020-03-07 09:00:00 11 12 Oeste 21 Noroeste 0 -- -- 43
2020-03-07 08:00:00 8.9 6 Oeste 12 Oeste 0 -- -- 47
2020-03-07 07:00:00 8.9 4 Oeste 16 Noroeste 0 -- -- 48
2020-03-07 06:00:00 9.2 10 Oeste 21 Oeste 0 -- -- 46
2020-03-07 05:00:00 9.2 9 Oeste 21 Oeste 0 -- -- 44
2020-03-07 04:00:00 8.9 9 Noroeste 21 Oeste 0 -- -- 46
2020-03-07 03:00:00 8.6 10 Oeste 26 Noroeste 0 -- -- 49
2020-03-07 02:00:00 8.7 5 Oeste 13 Oeste 0 -- -- 50
2020-03-07 01:00:00 9.7 4 Oeste 18 Noroeste 0 -- -- 47
2020-03-07 00:00:00 10.2 10 Oeste 22 Oeste 0 -- -- 45
2020-03-06 23:00:00 10.7 7 Oeste 22 Noroeste 0 -- -- 42
2020-03-06 22:00:00 10.8 8 Oeste 23 Noroeste 0 -- -- 47
2020-03-06 21:00:00 11 6 Sudeste 33 Este 0 -- -- 50
2020-03-06 20:00:00 12.1 6 Sur 25 Sur 0 -- -- 46
2020-03-06 19:00:00 14 8 Este 23 Este 0 -- -- 39
2020-03-06 18:00:00 15.5 6 Oeste 26 Oeste 0 -- -- 35
2020-03-06 17:00:00 15.8 10 Oeste 38 Noroeste 0 -- -- 37
2020-03-06 16:00:00 15.5 10 Oeste 43 Nordeste 0 -- -- 31
2020-03-06 15:00:00 18.1 8 Oeste 43 Oeste 0 -- -- 35
2020-03-06 14:00:00 17.5 13 Oeste 38 Oeste 0 -- -- 37
2020-03-06 13:00:00 16.3 13 Oeste 34 Noroeste 0 -- -- 39
2020-03-06 12:00:00 15.9 12 Oeste 32 Oeste 0 -- -- 41
2020-03-06 11:00:00 14.5 12 Oeste 38 Noroeste 0 -- -- 47
2020-03-06 10:00:00 13.8 7 Oeste 24 Noroeste 0 -- -- 45
2020-03-06 09:00:00 11.6 15 Oeste 30 Oeste 0 -- -- 51
2020-03-06 08:00:00 9.6 5 Oeste 15 Oeste 0 -- -- 57
2020-03-06 07:00:00 9.8 5 Norte 17 Este 0 -- -- 57
2020-03-06 06:00:00 10.2 9 Oeste 24 Noroeste 0 -- -- 54
2020-03-06 05:00:00 10.6 12 Noroeste 24 Oeste 0 -- -- 52
2020-03-06 04:00:00 11.2 6 Noroeste 19 Noroeste 0 -- -- 50
2020-03-06 03:00:00 11.8 13 Oeste 23 Noroeste 0 -- -- 50
2020-03-06 02:00:00 12.2 7 Oeste 15 Oeste 0 -- -- 51
2020-03-06 01:00:00 12.9 6 Sudoeste 33 Noroeste 0 -- -- 51
2020-03-06 00:00:00 13.6 6 Sur 23 Oeste 0 -- -- 50
2020-03-05 23:00:00 14.8 8 Oeste 24 Oeste 0 -- -- 46
2020-03-05 22:00:00 16 18 Noroeste 35 Oeste 0 -- -- 43
2020-03-05 21:00:00 16.7 10 Oeste 36 Noroeste 0 -- -- 42
2020-03-05 20:00:00 17.5 11 Oeste 33 Noroeste 0 -- -- 41
2020-03-05 19:00:00 18.5 17 Oeste 45 Noroeste 0 -- -- 38
2020-03-05 18:00:00 19.6 17 Oeste 35 Oeste 0 -- -- 42
2020-03-05 17:00:00 19.7 16 Oeste 38 Oeste 0 -- -- 49
2020-03-05 16:00:00 21 24 Oeste 44 Oeste 0 -- -- 43
2020-03-05 15:00:00 19.6 18 Oeste 32 Oeste 0 -- -- 51
2020-03-05 14:00:00 20.5 16 Oeste 32 Noroeste 0 -- -- 50
2020-03-05 13:00:00 20.6 15 Oeste 30 Oeste 0 -- -- 49
2020-03-05 12:00:00 19.7 12 Oeste 28 Oeste 0 -- -- 53
2020-03-05 11:00:00 18.1 10 Oeste 22 Oeste 0 -- -- 59
2020-03-05 10:00:00 16 9 Oeste 16 Oeste 0 -- -- 68
2020-03-05 09:00:00 13.9 7 Oeste 15 Noroeste 0 -- -- 76
2020-03-05 08:00:00 12.9 7 Noroeste 14 Noroeste 0 -- -- 82
2020-03-05 07:00:00 12.9 8 Noroeste 17 Noroeste 0 -- -- 81
2020-03-05 06:00:00 11.8 3 Noroeste 8 Noroeste 0 -- -- 85
2020-03-05 05:00:00 12.5 0 Calma 6 Noroeste 0 -- -- 82
2020-03-05 04:00:00 12.5 2 Noroeste 8 Oeste 0 -- -- 82
2020-03-05 03:00:00 12.5 0 Calma 6 Este 0 -- -- 81
2020-03-05 02:00:00 12.9 4 Nordeste 10 Nordeste 0 -- -- 79
2020-03-05 01:00:00 12.6 3 Este 6 Nordeste 0 -- -- 80
2020-03-05 00:00:00 12.7 2 Este 8 Este 0 -- -- 80
2020-03-04 23:00:00 12.8 2 Este 5 Este 0 -- -- 80
2020-03-04 22:00:00 12.9 3 Este 10 Nordeste 0 -- -- 82
2020-03-04 21:00:00 12.9 6 Este 11 Este 0 -- -- 82
2020-03-04 20:00:00 13.1 3 Este 10 Este 0 -- -- 82
2020-03-04 19:00:00 13.3 4 Este 13 Sudeste 0 -- -- 81
2020-03-04 18:00:00 14 4 Sudeste 13 Este 0 -- -- 78
2020-03-04 17:00:00 14.6 6 Este 14 Sudeste 0 -- -- 77
2020-03-04 16:00:00 14.9 5 Este 18 Este 0 -- -- 77
2020-03-04 15:00:00 15.7 4 Este 13 Sudeste 0 -- -- 68
2020-03-04 14:00:00 15.5 6 Sudeste 13 Sudeste 0 -- -- 63
2020-03-04 13:00:00 15.1 4 Sur 13 Sudeste 0 -- -- 59
2020-03-04 12:00:00 16.4 9 Sudeste 18 Sudeste 0 -- -- 55
2020-03-04 11:00:00 16 4 Sur 13 Este 0 -- -- 51
2020-03-04 10:00:00 14.1 6 Este 10 Este 0 -- -- 66
2020-03-04 09:00:00 13.2 3 Este 9 Oeste 0 -- -- 56
2020-03-04 08:00:00 12.1 5 Oeste 10 Oeste 0 -- -- 57
2020-03-04 07:00:00 12.4 5 Oeste 16 Oeste 0 -- -- 55
2020-03-04 06:00:00 12.5 7 Oeste 14 Noroeste 0 -- -- 53
2020-03-04 05:00:00 12.7 5 Oeste 23 Noroeste 0 -- -- 52
2020-03-04 04:00:00 12.9 16 Noroeste 28 Oeste 0 -- -- 51
2020-03-04 03:00:00 12.9 9 Noroeste 17 Noroeste 0 -- -- 50
2020-03-04 02:00:00 12.7 8 Noroeste 17 Noroeste 0 -- -- 50
2020-03-04 01:00:00 13.4 5 Oeste 14 Noroeste 0 -- -- 48
2020-03-04 00:00:00 14.1 4 Sudeste 17 Oeste 0 -- -- 47
2020-03-03 23:00:00 14.8 10 Oeste 27 Oeste 0 -- -- 46
2020-03-03 22:00:00 15.2 10 Oeste 23 Noroeste 0 -- -- 48
2020-03-03 21:00:00 15.6 7 Oeste 32 Noroeste 0 -- -- 50
2020-03-03 20:00:00 15.5 17 Oeste 39 Oeste 0 -- -- 55
2020-03-03 19:00:00 15.6 11 Oeste 33 Oeste 0 -- -- 54
2020-03-03 18:00:00 15.1 5 Oeste 31 Oeste 0 -- -- 63
2020-03-03 17:00:00 14.3 16 Oeste 32 Oeste 0 -- -- 63
2020-03-03 16:00:00 14 18 Oeste 38 Noroeste 0 -- -- 59
2020-03-03 15:00:00 14.6 15 Oeste 39 Noroeste 0 -- -- 57
2020-03-03 14:00:00 14.1 14 Oeste 35 Oeste 0 -- -- 52
2020-03-03 13:00:00 14 12 Noroeste 26 Noroeste 0 -- -- 47
2020-03-03 12:00:00 13.9 12 Oeste 28 Noroeste 0 -- -- 45
2020-03-03 11:00:00 12 9 Oeste 17 Sudoeste 0 -- -- 46
2020-03-03 10:00:00 11 6 Oeste 21 Oeste 0 -- -- 48
2020-03-03 09:00:00 10.6 12 Oeste 24 Noroeste 0 -- -- 49
2020-03-03 08:00:00 9.6 8 Oeste 23 Oeste 0 -- -- 52
2020-03-03 07:00:00 9.4 15 Oeste 27 Oeste 0 -- -- 53
2020-03-03 06:00:00 9.3 10 Oeste 28 Noroeste 0 -- -- 54
2020-03-03 05:00:00 9.3 6 Oeste 23 Noroeste 0 -- -- 54
2020-03-03 04:00:00 9.6 11 Oeste 35 Oeste 0 -- -- 52
2020-03-03 03:00:00 9.6 13 Oeste 31 Oeste 0 -- -- 52
2020-03-03 02:00:00 9.9 11 Oeste 26 Oeste 0 -- -- 50
2020-03-03 01:00:00 10.1 13 Oeste 33 Oeste 0 -- -- 49
2020-03-03 00:00:00 10.5 14 Oeste 34 Oeste 0 -- -- 49
2020-03-02 23:00:00 11.3 15 Oeste 35 Oeste 0 -- -- 46
2020-03-02 22:00:00 12 17 Oeste 31 Noroeste 0 -- -- 43
2020-03-02 21:00:00 12.8 15 Oeste 32 Oeste 0 -- -- 41
2020-03-02 20:00:00 13.5 13 Oeste 43 Oeste 0 -- -- 40
2020-03-02 19:00:00 14.9 19 Oeste 43 Oeste 0 -- -- 37
2020-03-02 18:00:00 16.8 16 Oeste 41 Oeste 0 -- -- 33
2020-03-02 17:00:00 17.8 15 Oeste 53 Noroeste 0 -- -- 32
2020-03-02 16:00:00 18.7 19 Oeste 44 Noroeste 0 -- -- 30
2020-03-02 15:00:00 19.2 14 Oeste 51 Oeste 0 -- -- 36
2020-03-02 14:00:00 18 21 Oeste 41 Noroeste 0 -- -- 40
2020-03-02 13:00:00 17.4 18 Oeste 51 Noroeste 0 -- -- 44
2020-03-02 12:00:00 17.4 25 Oeste 64 Noroeste 0 -- -- 42
2020-03-02 11:00:00 17.2 15 Noroeste 35 Oeste 0 -- -- 48
2020-03-02 10:00:00 15.4 9 Oeste 42 Oeste 0.8 -- -- 64
2020-03-02 09:00:00 16.3 18 Oeste 39 Oeste 0 -- -- 74
2020-03-02 08:00:00 16.3 15 Oeste 32 Oeste 0 -- -- 72
2020-03-02 07:00:00 16 14 Oeste 29 Oeste 0 -- -- 73
2020-03-02 06:00:00 15.6 9 Oeste 28 Oeste 0 -- -- 74
2020-03-02 05:00:00 15 10 Oeste 27 Oeste 0.4 -- -- 76
2020-03-02 04:00:00 15.1 12 Oeste 39 Oeste 0.2 -- -- 78
2020-03-02 03:00:00 16.1 14 Oeste 32 Oeste 0 -- -- 67
2020-03-02 02:00:00 14.9 8 Oeste 16 Noroeste 0 -- -- 76
2020-03-02 01:00:00 15 12 Oeste 20 Oeste 0 -- -- 78
2020-03-02 00:00:00 15.7 8 Oeste 17 Oeste 0 -- -- 69
2020-03-01 23:00:00 15.7 8 Noroeste 14 Noroeste 0 -- -- 68
2020-03-01 22:00:00 16 5 Oeste 12 Noroeste 0 -- -- 65
2020-03-01 21:00:00 16.3 3 Sudoeste 22 Noroeste 0 -- -- 62
2020-03-01 20:00:00 16.6 9 Oeste 24 Oeste 0 -- -- 61
2020-03-01 19:00:00 17 11 Oeste 26 Oeste 0 -- -- 61
2020-03-01 18:00:00 18.3 15 Oeste 42 Oeste 0 -- -- 54
2020-03-01 17:00:00 19 19 Oeste 39 Oeste 0 -- -- 52
2020-03-01 16:00:00 18.8 19 Oeste 40 Noroeste 0 -- -- 50
2020-03-01 15:00:00 20.9 15 Oeste 32 Oeste 0 -- -- 35
2020-03-01 14:00:00 20.3 11 Oeste 33 Oeste 0 -- -- 37
2020-03-01 13:00:00 20.4 12 Oeste 32 Noroeste 0 -- -- 38
2020-03-01 12:00:00 19.6 13 Oeste 33 Oeste 0 -- -- 39
2020-03-01 11:00:00 17.9 14 Oeste 33 Noroeste 0 -- -- 43
2020-03-01 10:00:00 16.8 11 Oeste 26 Noroeste 0 -- -- 44
2020-03-01 09:00:00 15 9 Oeste 23 Noroeste 0 -- -- 51
2020-03-01 08:00:00 13.5 0 Calma 7 Este 0 -- -- 81
2020-03-01 07:00:00 13.5 3 Este 12 Nordeste 0 -- -- 82
2020-03-01 06:00:00 13.6 5 Este 9 Este 0 -- -- 83
2020-03-01 05:00:00 13.6 4 Este 9 Sudeste 0 -- -- 83
2020-03-01 04:00:00 13.9 5 Sudeste 15 Sudeste 0 -- -- 82
2020-03-01 03:00:00 14.1 5 Este 15 Este 0 -- -- 82
2020-03-01 02:00:00 14.7 6 Este 24 Este 0 -- -- 82
2020-03-01 01:00:00 15.4 6 Este 17 Este 0 -- -- 75
2020-03-01 00:00:00 16 5 Oeste 13 Noroeste 0 -- -- 71
2020-02-29 23:00:00 16.2 6 Oeste 9 Noroeste 0 -- -- 66
2020-02-29 22:00:00 16.2 3 Oeste 10 Noroeste 0 -- -- 65
2020-02-29 21:00:00 16.1 6 Noroeste 12 Noroeste 0 -- -- 71
2020-02-29 20:00:00 16.4 4 Oeste 8 Oeste 0 -- -- 67
2020-02-29 19:00:00 16.6 6 Sudoeste 10 Sudoeste 0 -- -- 66
2020-02-29 18:00:00 16.7 4 Oeste 17 Oeste 0 -- -- 67
2020-02-29 17:00:00 17 6 Oeste 21 Oeste 0 -- -- 66
2020-02-29 16:00:00 17 9 Oeste 27 Oeste 0 -- -- 69
2020-02-29 15:00:00 17.5 17 Oeste 33 Oeste 0 -- -- 64
2020-02-29 14:00:00 17.5 14 Oeste 28 Oeste 0 -- -- 67
2020-02-29 13:00:00 17.9 13 Oeste 26 Oeste 0 -- -- 70
2020-02-29 12:00:00 17.2 12 Oeste 26 Oeste 0 -- -- 70
2020-02-29 11:00:00 15.7 12 Oeste 23 Oeste 0 -- -- 75
2020-02-29 10:00:00 14.7 13 Oeste 21 Oeste 0 -- -- 83
2020-02-29 09:00:00 13.9 5 Oeste 13 Oeste 0 -- -- 86
2020-02-29 08:00:00 13.3 4 Oeste 13 Oeste 0 -- -- 87
2020-02-29 07:00:00 13.2 5 Oeste 12 Noroeste 0 -- -- 85
2020-02-29 06:00:00 13.2 5 Oeste 12 Noroeste 0 -- -- 84
2020-02-29 05:00:00 13.3 6 Noroeste 15 Oeste 0 -- -- 84
2020-02-29 04:00:00 13.2 6 Oeste 9 Oeste 0 -- -- 84
2020-02-29 03:00:00 13.3 5 Oeste 8 Oeste 0 -- -- 81
2020-02-29 02:00:00 13.5 4 Oeste 8 Oeste 0 -- -- 83
2020-02-29 01:00:00 13.6 4 Oeste 6 Oeste 0 -- -- 80
2020-02-29 00:00:00 13.7 4 Oeste 10 Oeste 0 -- -- 80
2020-02-28 23:00:00 13.6 4 Oeste 7 Oeste 0 -- -- 81
2020-02-28 22:00:00 13.6 3 Oeste 8 Oeste 0 -- -- 81
2020-02-28 21:00:00 13.2 3 Sudoeste 10 Noroeste 0 -- -- 81
2020-02-28 20:00:00 13.8 4 Oeste 9 Oeste 0 -- -- 78
2020-02-28 19:00:00 13.8 7 Oeste 15 Oeste 0 -- -- 77
2020-02-28 18:00:00 13.8 9 Oeste 14 Oeste 0 -- -- 77
2020-02-28 17:00:00 14 6 Oeste 21 Sudoeste 0 -- -- 77
2020-02-28 16:00:00 14.5 7 Oeste 18 Sudoeste 0 -- -- 75
2020-02-28 15:00:00 14.4 9 Oeste 21 Oeste 0 -- -- 77
2020-02-28 14:00:00 14.2 11 Sudoeste 20 Sudoeste 0 -- -- 78
2020-02-28 13:00:00 14.4 9 Oeste 23 Oeste 0 -- -- 79
2020-02-28 12:00:00 14.9 11 Sudoeste 24 Sudoeste 0 -- -- 76
2020-02-28 11:00:00 15.6 11 Sudoeste 22 Sudoeste 0 -- -- 74
2020-02-28 10:00:00 15.3 9 Oeste 17 Oeste 0 -- -- 70
2020-02-28 09:00:00 14.5 8 Oeste 15 Oeste 0 -- -- 64
2020-02-28 08:00:00 12.9 8 Oeste 13 Noroeste 0 -- -- 68
2020-02-28 07:00:00 13.1 4 Oeste 7 Oeste 0 -- -- 78
2020-02-28 06:00:00 13.3 5 Noroeste 8 Noroeste 0 -- -- 78
2020-02-28 05:00:00 13.6 0 Calma 5 Nordeste 0 -- -- 73
2020-02-28 04:00:00 14.3 0 Calma 12 Nordeste 0 -- -- 58
2020-02-28 03:00:00 14.7 8 Este 17 Nordeste 0 -- -- 54
2020-02-28 02:00:00 15.3 3 Oeste 12 Noroeste 0 -- -- 56
2020-02-28 01:00:00 16.1 5 Noroeste 25 Noroeste 0 -- -- 53
2020-02-28 00:00:00 16.9 13 Oeste 29 Oeste 0 -- -- 50